sensor_id;sensor_type;location;lat;lon;timestamp;temperature;humidity
27795;DHT22;15176;50.844;4.412;2023-02-03T00:01:31;11.00;99.90
27795;DHT22;15176;50.844;4.412;2023-02-03T00:03:56;11.10;99.90
27795;DHT22;15176;50.844;4.412;2023-02-03T00:06:22;11.20;99.90
27795;DHT22;15176;50.844;4.412;2023-02-03T00:08:48;11.40;99.90
27795;DHT22;15176;50.844;4.412;2023-02-03T00:11:18;11.00;99.90
27795;DHT22;15176;50.844;4.412;2023-02-03T00:13:44;11.10;99.90
27795;DHT22;15176;50.844;4.412;2023-02-03T00:16:10;11.20;99.90
27795;DHT22;15176;50.844;4.412;2023-02-03T00:18:35;11.00;99.90
27795;DHT22;15176;50.844;4.412;2023-02-03T00:21:01;10.90;99.90
27795;DHT22;15176;50.844;4.412;2023-02-03T00:23:27;10.90;99.90
27795;DHT22;15176;50.844;4.412;2023-02-03T00:25:56;10.80;99.90
27795;DHT22;15176;50.844;4.412;2023-02-03T00:28:23;10.90;99.90
27795;DHT22;15176;50.844;4.412;2023-02-03T00:30:48;10.90;99.90
27795;DHT22;15176;50.844;4.412;2023-02-03T00:33:14;11.00;99.90
27795;DHT22;15176;50.844;4.412;2023-02-03T00:35:41;11.00;99.90
27795;DHT22;15176;50.844;4.412;2023-02-03T00:38:06;10.80;99.90
27795;DHT22;15176;50.844;4.412;2023-02-03T00:40:32;10.70;99.90
27795;DHT22;15176;50.844;4.412;2023-02-03T00:42:58;10.70;99.90
27795;DHT22;15176;50.844;4.412;2023-02-03T00:45:23;10.70;99.90
27795;DHT22;15176;50.844;4.412;2023-02-03T00:47:49;10.60;99.90
27795;DHT22;15176;50.844;4.412;2023-02-03T00:50:15;10.70;99.90
27795;DHT22;15176;50.844;4.412;2023-02-03T00:52:41;10.70;99.90
27795;DHT22;15176;50.844;4.412;2023-02-03T00:55:07;11.00;99.90
27795;DHT22;15176;50.844;4.412;2023-02-03T00:57:33;10.90;99.90
27795;DHT22;15176;50.844;4.412;2023-02-03T00:59:58;10.70;99.90
27795;DHT22;15176;50.844;4.412;2023-02-03T01:02:24;10.70;99.90
27795;DHT22;15176;50.844;4.412;2023-02-03T01:04:50;10.90;99.90
27795;DHT22;15176;50.844;4.412;2023-02-03T01:07:16;11.10;99.90
27795;DHT22;15176;50.844;4.412;2023-02-03T01:09:43;11.00;99.90
27795;DHT22;15176;50.844;4.412;2023-02-03T01:12:09;10.80;99.90
27795;DHT22;15176;50.844;4.412;2023-02-03T01:14:35;10.70;99.90
27795;DHT22;15176;50.844;4.412;2023-02-03T01:17:00;10.60;99.90
27795;DHT22;15176;50.844;4.412;2023-02-03T01:19:27;10.60;99.90
27795;DHT22;15176;50.844;4.412;2023-02-03T01:21:53;10.70;99.90
27795;DHT22;15176;50.844;4.412;2023-02-03T01:24:18;10.80;99.90
27795;DHT22;15176;50.844;4.412;2023-02-03T01:26:44;10.70;99.90
27795;DHT22;15176;50.844;4.412;2023-02-03T01:29:10;10.90;99.90
27795;DHT22;15176;50.844;4.412;2023-02-03T01:31:38;10.90;99.90
27795;DHT22;15176;50.844;4.412;2023-02-03T01:34:05;11.00;99.90
27795;DHT22;15176;50.844;4.412;2023-02-03T01:36:33;10.80;99.90
27795;DHT22;15176;50.844;4.412;2023-02-03T01:38:59;10.90;99.90
27795;DHT22;15176;50.844;4.412;2023-02-03T01:41:33;11.00;99.90
27795;DHT22;15176;50.844;4.412;2023-02-03T01:44:00;10.80;99.90
27795;DHT22;15176;50.844;4.412;2023-02-03T01:46:40;10.70;99.90
27795;DHT22;15176;50.844;4.412;2023-02-03T01:49:15;10.70;99.90
27795;DHT22;15176;50.844;4.412;2023-02-03T01:51:43;10.70;99.90
27795;DHT22;15176;50.844;4.412;2023-02-03T01:54:13;10.70;99.90
27795;DHT22;15176;50.844;4.412;2023-02-03T01:56:44;10.90;99.90
27795;DHT22;15176;50.844;4.412;2023-02-03T01:59:11;11.00;99.90
27795;DHT22;15176;50.844;4.412;2023-02-03T02:01:39;11.10;99.90
27795;DHT22;15176;50.844;4.412;2023-02-03T02:04:05;10.80;99.90
27795;DHT22;15176;50.844;4.412;2023-02-03T02:06:31;10.90;99.90
27795;DHT22;15176;50.844;4.412;2023-02-03T02:08:57;11.00;99.90
27795;DHT22;15176;50.844;4.412;2023-02-03T02:11:26;11.00;99.90
27795;DHT22;15176;50.844;4.412;2023-02-03T02:13:54;11.00;99.90
27795;DHT22;15176;50.844;4.412;2023-02-03T02:16:42;10.90;99.90
27795;DHT22;15176;50.844;4.412;2023-02-03T02:22:05;10.60;99.90
27795;DHT22;15176;50.844;4.412;2023-02-03T02:24:46;10.60;99.90
27795;DHT22;15176;50.844;4.412;2023-02-03T02:35:42;10.80;99.90
27795;DHT22;15176;50.844;4.412;2023-02-03T02:39:12;10.90;99.90
27795;DHT22;15176;50.844;4.412;2023-02-03T02:41:34;10.80;99.90
27795;DHT22;15176;50.844;4.412;2023-02-03T02:46:51;10.80;99.90
27795;DHT22;15176;50.844;4.412;2023-02-03T02:49:36;10.80;99.90
27795;DHT22;15176;50.844;4.412;2023-02-03T02:52:05;10.80;99.90
27795;DHT22;15176;50.844;4.412;2023-02-03T02:54:35;10.70;99.90
27795;DHT22;15176;50.844;4.412;2023-02-03T02:57:03;10.80;99.90
27795;DHT22;15176;50.844;4.412;2023-02-03T02:59:30;10.70;99.90
27795;DHT22;15176;50.844;4.412;2023-02-03T03:01:55;10.70;99.90
27795;DHT22;15176;50.844;4.412;2023-02-03T03:04:24;11.00;99.90
27795;DHT22;15176;50.844;4.412;2023-02-03T03:06:57;10.90;99.90
27795;DHT22;15176;50.844;4.412;2023-02-03T03:09:37;10.70;99.90
27795;DHT22;15176;50.844;4.412;2023-02-03T03:12:20;10.70;99.90
27795;DHT22;15176;50.844;4.412;2023-02-03T03:14:51;10.80;99.90
27795;DHT22;15176;50.844;4.412;2023-02-03T03:17:26;10.80;99.90
27795;DHT22;15176;50.844;4.412;2023-02-03T03:19:56;10.70;99.90
27795;DHT22;15176;50.844;4.412;2023-02-03T03:22:29;10.70;99.90
27795;DHT22;15176;50.844;4.412;2023-02-03T03:25:17;10.80;99.90
27795;DHT22;15176;50.844;4.412;2023-02-03T03:27:57;10.90;99.90
27795;DHT22;15176;50.844;4.412;2023-02-03T03:30:27;10.70;99.90
27795;DHT22;15176;50.844;4.412;2023-02-03T03:32:54;10.70;99.90
27795;DHT22;15176;50.844;4.412;2023-02-03T03:35:21;10.70;99.90
27795;DHT22;15176;50.844;4.412;2023-02-03T03:37:56;10.70;99.90
27795;DHT22;15176;50.844;4.412;2023-02-03T03:40:41;10.70;99.90
27795;DHT22;15176;50.844;4.412;2023-02-03T03:43:14;10.60;99.90
27795;DHT22;15176;50.844;4.412;2023-02-03T03:45:58;10.70;99.90
27795;DHT22;15176;50.844;4.412;2023-02-03T03:48:53;10.70;99.90
27795;DHT22;15176;50.844;4.412;2023-02-03T03:51:30;10.60;99.90
27795;DHT22;15176;50.844;4.412;2023-02-03T03:54:07;10.70;99.90
27795;DHT22;15176;50.844;4.412;2023-02-03T03:56:42;10.90;99.90
27795;DHT22;15176;50.844;4.412;2023-02-03T03:59:11;11.10;99.90
27795;DHT22;15176;50.844;4.412;2023-02-03T04:01:38;10.90;99.90
27795;DHT22;15176;50.844;4.412;2023-02-03T04:04:07;10.80;99.90
27795;DHT22;15176;50.844;4.412;2023-02-03T04:06:35;10.70;99.90
27795;DHT22;15176;50.844;4.412;2023-02-03T04:09:01;10.60;99.90
27795;DHT22;15176;50.844;4.412;2023-02-03T04:11:27;10.50;99.90
27795;DHT22;15176;50.844;4.412;2023-02-03T04:14:11;10.60;99.90
27795;DHT22;15176;50.844;4.412;2023-02-03T04:16:37;10.90;99.90
27795;DHT22;15176;50.844;4.412;2023-02-03T04:19:02;10.80;99.90
27795;DHT22;15176;50.844;4.412;2023-02-03T04:21:28;10.70;99.90
27795;DHT22;15176;50.844;4.412;2023-02-03T04:23:54;10.50;99.90
27795;DHT22;15176;50.844;4.412;2023-02-03T04:26:21;10.60;99.90
27795;DHT22;15176;50.844;4.412;2023-02-03T04:28:47;10.60;99.90
27795;DHT22;15176;50.844;4.412;2023-02-03T04:31:12;10.60;99.90
27795;DHT22;15176;50.844;4.412;2023-02-03T04:33:38;10.60;99.90
27795;DHT22;15176;50.844;4.412;2023-02-03T04:36:06;10.70;99.90
27795;DHT22;15176;50.844;4.412;2023-02-03T04:38:31;10.60;99.90
27795;DHT22;15176;50.844;4.412;2023-02-03T04:40:57;10.60;99.90
27795;DHT22;15176;50.844;4.412;2023-02-03T04:43:23;10.60;99.90
27795;DHT22;15176;50.844;4.412;2023-02-03T04:45:49;10.70;99.90
27795;DHT22;15176;50.844;4.412;2023-02-03T04:48:16;10.50;99.90
27795;DHT22;15176;50.844;4.412;2023-02-03T04:50:42;10.60;99.90
27795;DHT22;15176;50.844;4.412;2023-02-03T04:53:08;10.70;99.90
27795;DHT22;15176;50.844;4.412;2023-02-03T04:55:34;10.60;99.90
27795;DHT22;15176;50.844;4.412;2023-02-03T04:58:00;10.60;99.90
27795;DHT22;15176;50.844;4.412;2023-02-03T05:00:27;10.40;99.90
27795;DHT22;15176;50.844;4.412;2023-02-03T05:02:53;10.40;99.90
27795;DHT22;15176;50.844;4.412;2023-02-03T05:05:20;10.40;99.90
27795;DHT22;15176;50.844;4.412;2023-02-03T05:07:46;10.50;99.90
27795;DHT22;15176;50.844;4.412;2023-02-03T05:10:12;10.60;99.90
27795;DHT22;15176;50.844;4.412;2023-02-03T05:12:37;10.50;99.90
27795;DHT22;15176;50.844;4.412;2023-02-03T05:15:03;10.60;99.90
27795;DHT22;15176;50.844;4.412;2023-02-03T05:17:29;10.50;99.90
27795;DHT22;15176;50.844;4.412;2023-02-03T05:19:55;10.60;99.90
27795;DHT22;15176;50.844;4.412;2023-02-03T05:22:21;10.60;99.90
27795;DHT22;15176;50.844;4.412;2023-02-03T05:24:46;10.70;99.90
27795;DHT22;15176;50.844;4.412;2023-02-03T05:27:12;10.80;99.90
27795;DHT22;15176;50.844;4.412;2023-02-03T05:29:38;10.90;99.90
27795;DHT22;15176;50.844;4.412;2023-02-03T05:32:04;10.90;99.90
27795;DHT22;15176;50.844;4.412;2023-02-03T05:34:30;10.90;99.90
27795;DHT22;15176;50.844;4.412;2023-02-03T05:36:55;10.90;99.90
27795;DHT22;15176;50.844;4.412;2023-02-03T05:39:21;10.90;99.90
27795;DHT22;15176;50.844;4.412;2023-02-03T05:41:47;11.00;99.90
27795;DHT22;15176;50.844;4.412;2023-02-03T05:44:23;10.90;99.90
27795;DHT22;15176;50.844;4.412;2023-02-03T05:46:51;10.90;99.90
27795;DHT22;15176;50.844;4.412;2023-02-03T05:49:17;11.10;99.90
27795;DHT22;15176;50.844;4.412;2023-02-03T05:51:45;11.00;99.90
27795;DHT22;15176;50.844;4.412;2023-02-03T05:54:12;11.00;99.90
27795;DHT22;15176;50.844;4.412;2023-02-03T05:56:38;11.00;99.90
27795;DHT22;15176;50.844;4.412;2023-02-03T05:59:04;10.80;99.90
27795;DHT22;15176;50.844;4.412;2023-02-03T06:01:31;10.70;99.90
27795;DHT22;15176;50.844;4.412;2023-02-03T06:03:58;10.80;99.90
27795;DHT22;15176;50.844;4.412;2023-02-03T06:06:24;10.80;99.90
27795;DHT22;15176;50.844;4.412;2023-02-03T06:08:49;10.90;99.90
27795;DHT22;15176;50.844;4.412;2023-02-03T06:11:21;11.10;99.90
27795;DHT22;15176;50.844;4.412;2023-02-03T06:13:49;11.10;99.90
27795;DHT22;15176;50.844;4.412;2023-02-03T06:16:15;11.20;99.90
27795;DHT22;15176;50.844;4.412;2023-02-03T06:18:40;11.20;99.90
27795;DHT22;15176;50.844;4.412;2023-02-03T06:21:06;11.20;99.90
27795;DHT22;15176;50.844;4.412;2023-02-03T06:23:32;11.00;99.90
27795;DHT22;15176;50.844;4.412;2023-02-03T06:25:57;11.00;99.90
27795;DHT22;15176;50.844;4.412;2023-02-03T06:28:25;10.90;99.90
27795;DHT22;15176;50.844;4.412;2023-02-03T06:30:51;11.00;99.90
27795;DHT22;15176;50.844;4.412;2023-02-03T06:33:18;10.90;99.90
27795;DHT22;15176;50.844;4.412;2023-02-03T06:35:44;11.00;99.90
27795;DHT22;15176;50.844;4.412;2023-02-03T06:38:09;11.10;99.90
27795;DHT22;15176;50.844;4.412;2023-02-03T06:40:35;11.10;99.90
27795;DHT22;15176;50.844;4.412;2023-02-03T06:43:01;11.10;99.90
27795;DHT22;15176;50.844;4.412;2023-02-03T06:45:27;11.10;99.90
27795;DHT22;15176;50.844;4.412;2023-02-03T06:47:53;10.90;99.90
27795;DHT22;15176;50.844;4.412;2023-02-03T06:50:19;10.90;99.90
27795;DHT22;15176;50.844;4.412;2023-02-03T06:52:45;11.00;99.90
27795;DHT22;15176;50.844;4.412;2023-02-03T06:55:11;11.00;99.90
27795;DHT22;15176;50.844;4.412;2023-02-03T06:57:45;11.00;99.90
27795;DHT22;15176;50.844;4.412;2023-02-03T07:00:13;11.00;99.90
27795;DHT22;15176;50.844;4.412;2023-02-03T07:02:41;11.00;99.90
27795;DHT22;15176;50.844;4.412;2023-02-03T07:05:07;11.00;99.90
27795;DHT22;15176;50.844;4.412;2023-02-03T07:07:33;11.10;99.90
27795;DHT22;15176;50.844;4.412;2023-02-03T07:10:00;11.10;99.90
27795;DHT22;15176;50.844;4.412;2023-02-03T07:12:26;11.00;99.90
27795;DHT22;15176;50.844;4.412;2023-02-03T07:14:52;11.10;99.90
27795;DHT22;15176;50.844;4.412;2023-02-03T07:17:17;11.00;99.90
27795;DHT22;15176;50.844;4.412;2023-02-03T07:19:43;10.90;99.90
27795;DHT22;15176;50.844;4.412;2023-02-03T07:22:12;10.90;99.90
27795;DHT22;15176;50.844;4.412;2023-02-03T07:24:38;10.90;99.90
27795;DHT22;15176;50.844;4.412;2023-02-03T07:27:04;11.00;99.90
27795;DHT22;15176;50.844;4.412;2023-02-03T07:29:32;11.00;99.90
27795;DHT22;15176;50.844;4.412;2023-02-03T07:31:58;11.20;99.90
27795;DHT22;15176;50.844;4.412;2023-02-03T07:34:27;11.20;99.90
27795;DHT22;15176;50.844;4.412;2023-02-03T07:36:53;11.20;99.90
27795;DHT22;15176;50.844;4.412;2023-02-03T07:39:19;11.10;99.90
27795;DHT22;15176;50.844;4.412;2023-02-03T07:41:44;11.20;99.90
27795;DHT22;15176;50.844;4.412;2023-02-03T07:44:10;11.10;99.90
27795;DHT22;15176;50.844;4.412;2023-02-03T07:46:36;11.20;99.90
27795;DHT22;15176;50.844;4.412;2023-02-03T07:49:05;11.20;99.90
27795;DHT22;15176;50.844;4.412;2023-02-03T07:51:32;11.20;99.90
27795;DHT22;15176;50.844;4.412;2023-02-03T07:53:57;11.20;99.90
27795;DHT22;15176;50.844;4.412;2023-02-03T07:56:23;11.30;99.90
27795;DHT22;15176;50.844;4.412;2023-02-03T07:58:51;11.30;99.90
27795;DHT22;15176;50.844;4.412;2023-02-03T08:01:17;11.30;99.90
27795;DHT22;15176;50.844;4.412;2023-02-03T08:03:43;11.20;99.90
27795;DHT22;15176;50.844;4.412;2023-02-03T08:06:09;11.20;99.90
27795;DHT22;15176;50.844;4.412;2023-02-03T08:08:35;11.40;99.90
27795;DHT22;15176;50.844;4.412;2023-02-03T08:11:01;11.60;99.90
27795;DHT22;15176;50.844;4.412;2023-02-03T08:13:28;11.60;99.90
27795;DHT22;15176;50.844;4.412;2023-02-03T08:15:53;11.70;99.90
27795;DHT22;15176;50.844;4.412;2023-02-03T08:18:19;11.80;99.90
27795;DHT22;15176;50.844;4.412;2023-02-03T08:20:48;11.80;99.90
27795;DHT22;15176;50.844;4.412;2023-02-03T08:23:15;11.50;99.90
27795;DHT22;15176;50.844;4.412;2023-02-03T08:25:40;11.30;99.90
27795;DHT22;15176;50.844;4.412;2023-02-03T08:28:06;11.20;99.90
27795;DHT22;15176;50.844;4.412;2023-02-03T08:30:32;11.30;99.90
27795;DHT22;15176;50.844;4.412;2023-02-03T08:32:58;11.20;99.90
27795;DHT22;15176;50.844;4.412;2023-02-03T08:35:24;11.00;99.90
27795;DHT22;15176;50.844;4.412;2023-02-03T08:37:49;11.00;99.90
27795;DHT22;15176;50.844;4.412;2023-02-03T08:40:16;10.90;99.90
27795;DHT22;15176;50.844;4.412;2023-02-03T08:42:42;11.00;99.90
27795;DHT22;15176;50.844;4.412;2023-02-03T08:45:08;11.10;99.90
27795;DHT22;15176;50.844;4.412;2023-02-03T08:47:34;11.30;99.90
27795;DHT22;15176;50.844;4.412;2023-02-03T08:50:02;11.30;99.90
27795;DHT22;15176;50.844;4.412;2023-02-03T08:52:28;11.30;99.90
27795;DHT22;15176;50.844;4.412;2023-02-03T08:54:54;11.40;99.90
27795;DHT22;15176;50.844;4.412;2023-02-03T08:57:19;11.50;99.90
27795;DHT22;15176;50.844;4.412;2023-02-03T08:59:45;11.30;99.90
27795;DHT22;15176;50.844;4.412;2023-02-03T09:02:17;11.30;99.90
27795;DHT22;15176;50.844;4.412;2023-02-03T09:04:45;11.30;99.90
27795;DHT22;15176;50.844;4.412;2023-02-03T09:07:12;11.40;99.90
27795;DHT22;15176;50.844;4.412;2023-02-03T09:09:38;11.30;99.90
27795;DHT22;15176;50.844;4.412;2023-02-03T09:12:07;11.30;99.90
27795;DHT22;15176;50.844;4.412;2023-02-03T09:14:33;11.50;99.90
27795;DHT22;15176;50.844;4.412;2023-02-03T09:17:01;11.50;99.90
27795;DHT22;15176;50.844;4.412;2023-02-03T09:19:28;11.50;99.90
27795;DHT22;15176;50.844;4.412;2023-02-03T09:21:54;11.60;99.90
27795;DHT22;15176;50.844;4.412;2023-02-03T09:24:22;11.60;99.90
27795;DHT22;15176;50.844;4.412;2023-02-03T09:26:49;11.50;99.90
27795;DHT22;15176;50.844;4.412;2023-02-03T09:29:15;11.60;99.90
27795;DHT22;15176;50.844;4.412;2023-02-03T09:31:41;11.50;99.90
27795;DHT22;15176;50.844;4.412;2023-02-03T09:34:08;11.40;99.90
27795;DHT22;15176;50.844;4.412;2023-02-03T09:36:34;11.50;99.90
27795;DHT22;15176;50.844;4.412;2023-02-03T09:39:00;11.70;99.90
27795;DHT22;15176;50.844;4.412;2023-02-03T09:46:59;11.70;99.90
27795;DHT22;15176;50.844;4.412;2023-02-03T09:49:52;11.70;99.90
27795;DHT22;15176;50.844;4.412;2023-02-03T09:52:22;11.70;99.90
27795;DHT22;15176;50.844;4.412;2023-02-03T09:55:04;11.50;99.90
27795;DHT22;15176;50.844;4.412;2023-02-03T09:57:51;11.40;99.90
27795;DHT22;15176;50.844;4.412;2023-02-03T10:00:25;11.60;99.90
27795;DHT22;15176;50.844;4.412;2023-02-03T10:03:30;11.60;99.90
27795;DHT22;15176;50.844;4.412;2023-02-03T10:08:48;11.70;99.90
27795;DHT22;15176;50.844;4.412;2023-02-03T10:19:19;12.00;99.90
27795;DHT22;15176;50.844;4.412;2023-02-03T10:21:54;12.00;99.90
27795;DHT22;15176;50.844;4.412;2023-02-03T10:27:24;11.60;99.90
27795;DHT22;15176;50.844;4.412;2023-02-03T10:30:02;11.80;99.90
27795;DHT22;15176;50.844;4.412;2023-02-03T10:32:29;12.00;99.90
27795;DHT22;15176;50.844;4.412;2023-02-03T10:34:55;12.00;99.90
27795;DHT22;15176;50.844;4.412;2023-02-03T10:37:24;11.90;99.90
27795;DHT22;15176;50.844;4.412;2023-02-03T10:39:52;11.80;99.90
27795;DHT22;15176;50.844;4.412;2023-02-03T10:42:18;11.90;99.90
27795;DHT22;15176;50.844;4.412;2023-02-03T10:44:51;11.90;99.90
27795;DHT22;15176;50.844;4.412;2023-02-03T10:47:24;12.00;99.90
27795;DHT22;15176;50.844;4.412;2023-02-03T10:49:54;11.90;99.90
27795;DHT22;15176;50.844;4.412;2023-02-03T10:52:46;11.80;99.90
27795;DHT22;15176;50.844;4.412;2023-02-03T10:57:48;12.10;99.90
27795;DHT22;15176;50.844;4.412;2023-02-03T11:00:34;12.00;99.90
27795;DHT22;15176;50.844;4.412;2023-02-03T11:03:03;12.40;99.90
27795;DHT22;15176;50.844;4.412;2023-02-03T11:05:30;12.40;99.90
27795;DHT22;15176;50.844;4.412;2023-02-03T11:07:56;12.30;99.90
27795;DHT22;15176;50.844;4.412;2023-02-03T11:10:35;12.50;99.90
27795;DHT22;15176;50.844;4.412;2023-02-03T11:13:21;12.60;99.90
27795;DHT22;15176;50.844;4.412;2023-02-03T11:15:57;12.80;99.90
27795;DHT22;15176;50.844;4.412;2023-02-03T11:26:52;12.70;99.90
27795;DHT22;15176;50.844;4.412;2023-02-03T11:29:26;12.80;99.90
27795;DHT22;15176;50.844;4.412;2023-02-03T11:31:54;12.90;99.90
27795;DHT22;15176;50.844;4.412;2023-02-03T11:36:52;13.60;99.90
27795;DHT22;15176;50.844;4.412;2023-02-03T11:39:29;13.60;99.90
27795;DHT22;15176;50.844;4.412;2023-02-03T11:42:01;13.60;99.90
27795;DHT22;15176;50.844;4.412;2023-02-03T11:44:32;13.30;99.90
27795;DHT22;15176;50.844;4.412;2023-02-03T11:47:02;13.10;99.90
27795;DHT22;15176;50.844;4.412;2023-02-03T11:49:53;12.90;99.90
27795;DHT22;15176;50.844;4.412;2023-02-03T11:55:40;12.90;99.90
27795;DHT22;15176;50.844;4.412;2023-02-03T12:01:20;13.00;99.90
27795;DHT22;15176;50.844;4.412;2023-02-03T12:09:37;13.20;99.90
27795;DHT22;15176;50.844;4.412;2023-02-03T12:12:25;13.10;99.90
27795;DHT22;15176;50.844;4.412;2023-02-03T12:14:58;13.40;99.90
27795;DHT22;15176;50.844;4.412;2023-02-03T12:20:35;13.90;99.90
27795;DHT22;15176;50.844;4.412;2023-02-03T12:28:44;13.50;99.90
27795;DHT22;15176;50.844;4.412;2023-02-03T12:31:36;13.30;99.90
27795;DHT22;15176;50.844;4.412;2023-02-03T12:34:30;12.90;99.90
27795;DHT22;15176;50.844;4.412;2023-02-03T12:37:24;12.70;99.90
27795;DHT22;15176;50.844;4.412;2023-02-03T12:39:53;12.90;99.90
27795;DHT22;15176;50.844;4.412;2023-02-03T12:42:46;13.00;99.90
27795;DHT22;15176;50.844;4.412;2023-02-03T12:45:17;13.00;99.90
27795;DHT22;15176;50.844;4.412;2023-02-03T12:47:49;12.80;99.90
27795;DHT22;15176;50.844;4.412;2023-02-03T12:50:30;12.80;99.90
27795;DHT22;15176;50.844;4.412;2023-02-03T12:53:00;12.80;99.90
27795;DHT22;15176;50.844;4.412;2023-02-03T12:55:36;12.90;99.90
27795;DHT22;15176;50.844;4.412;2023-02-03T12:58:24;12.90;99.90
27795;DHT22;15176;50.844;4.412;2023-02-03T13:01:25;12.70;99.90
27795;DHT22;15176;50.844;4.412;2023-02-03T13:04:09;13.00;99.90
27795;DHT22;15176;50.844;4.412;2023-02-03T13:06:53;12.90;99.90
27795;DHT22;15176;50.844;4.412;2023-02-03T13:09:27;13.00;99.90
27795;DHT22;15176;50.844;4.412;2023-02-03T13:12:05;13.10;99.90
27795;DHT22;15176;50.844;4.412;2023-02-03T13:14:41;13.30;99.90
27795;DHT22;15176;50.844;4.412;2023-02-03T13:17:24;13.40;99.90
27795;DHT22;15176;50.844;4.412;2023-02-03T13:20:02;14.00;99.90
27795;DHT22;15176;50.844;4.412;2023-02-03T13:22:29;14.50;99.90
27795;DHT22;15176;50.844;4.412;2023-02-03T13:39:13;13.60;99.90
27795;DHT22;15176;50.844;4.412;2023-02-03T13:41:55;13.30;99.90
27795;DHT22;15176;50.844;4.412;2023-02-03T13:44:35;13.30;99.90
27795;DHT22;15176;50.844;4.412;2023-02-03T13:47:03;12.90;99.90
27795;DHT22;15176;50.844;4.412;2023-02-03T13:49:51;13.10;99.90
27795;DHT22;15176;50.844;4.412;2023-02-03T13:52:44;13.40;99.90
27795;DHT22;15176;50.844;4.412;2023-02-03T13:58:06;13.60;99.90
27795;DHT22;15176;50.844;4.412;2023-02-03T14:03:16;13.50;99.90
27795;DHT22;15176;50.844;4.412;2023-02-03T14:05:47;13.10;99.90
27795;DHT22;15176;50.844;4.412;2023-02-03T14:16:37;13.10;99.90
27795;DHT22;15176;50.844;4.412;2023-02-03T14:19:04;13.20;99.90
27795;DHT22;15176;50.844;4.412;2023-02-03T14:21:53;13.10;99.90
27795;DHT22;15176;50.844;4.412;2023-02-03T14:24:20;13.30;99.90
27795;DHT22;15176;50.844;4.412;2023-02-03T14:26:50;13.40;99.90
27795;DHT22;15176;50.844;4.412;2023-02-03T14:29:37;13.60;99.90
27795;DHT22;15176;50.844;4.412;2023-02-03T14:32:11;13.60;99.90
27795;DHT22;15176;50.844;4.412;2023-02-03T14:34:41;13.80;99.90
27795;DHT22;15176;50.844;4.412;2023-02-03T14:45:23;13.50;99.90
27795;DHT22;15176;50.844;4.412;2023-02-03T14:58:39;13.70;99.90
27795;DHT22;15176;50.844;4.412;2023-02-03T15:01:23;13.90;99.90
27795;DHT22;15176;50.844;4.412;2023-02-03T15:04:24;13.80;99.90
27795;DHT22;15176;50.844;4.412;2023-02-03T15:06:51;13.60;99.90
27795;DHT22;15176;50.844;4.412;2023-02-03T15:12:25;14.20;99.90
27795;DHT22;15176;50.844;4.412;2023-02-03T15:15:18;14.20;99.90
27795;DHT22;15176;50.844;4.412;2023-02-03T15:17:45;14.30;99.90
27795;DHT22;15176;50.844;4.412;2023-02-03T15:22:51;14.00;99.90
27795;DHT22;15176;50.844;4.412;2023-02-03T15:25:21;14.10;99.90
27795;DHT22;15176;50.844;4.412;2023-02-03T15:27:49;14.20;99.90
27795;DHT22;15176;50.844;4.412;2023-02-03T15:30:24;14.00;99.90
27795;DHT22;15176;50.844;4.412;2023-02-03T15:33:15;13.90;99.90
27795;DHT22;15176;50.844;4.412;2023-02-03T15:35:44;13.90;99.90
27795;DHT22;15176;50.844;4.412;2023-02-03T15:38:19;14.00;99.90
27795;DHT22;15176;50.844;4.412;2023-02-03T15:40:53;14.10;99.90
27795;DHT22;15176;50.844;4.412;2023-02-03T15:46:15;14.40;99.90
27795;DHT22;15176;50.844;4.412;2023-02-03T15:48:51;14.40;99.90
27795;DHT22;15176;50.844;4.412;2023-02-03T15:51:29;14.20;99.90
27795;DHT22;15176;50.844;4.412;2023-02-03T15:54:03;13.90;99.90
27795;DHT22;15176;50.844;4.412;2023-02-03T15:56:47;13.50;99.90
27795;DHT22;15176;50.844;4.412;2023-02-03T15:59:34;13.80;99.90
27795;DHT22;15176;50.844;4.412;2023-02-03T16:02:13;13.70;99.90
27795;DHT22;15176;50.844;4.412;2023-02-03T16:04:40;13.40;99.90
27795;DHT22;15176;50.844;4.412;2023-02-03T16:07:24;13.60;99.90
27795;DHT22;15176;50.844;4.412;2023-02-03T16:09:54;13.80;99.90
27795;DHT22;15176;50.844;4.412;2023-02-03T16:12:32;13.90;99.90
27795;DHT22;15176;50.844;4.412;2023-02-03T16:14:59;13.90;99.90
27795;DHT22;15176;50.844;4.412;2023-02-03T16:17:36;14.10;99.90
27795;DHT22;15176;50.844;4.412;2023-02-03T16:22:41;13.80;99.90
27795;DHT22;15176;50.844;4.412;2023-02-03T16:27:39;13.60;99.90
27795;DHT22;15176;50.844;4.412;2023-02-03T16:33:12;13.90;99.90
27795;DHT22;15176;50.844;4.412;2023-02-03T16:36:01;13.80;99.90
27795;DHT22;15176;50.844;4.412;2023-02-03T16:38:50;13.60;99.90
27795;DHT22;15176;50.844;4.412;2023-02-03T16:41:36;14.00;99.90
27795;DHT22;15176;50.844;4.412;2023-02-03T16:44:20;14.30;99.90
27795;DHT22;15176;50.844;4.412;2023-02-03T16:47:27;14.20;99.90
27795;DHT22;15176;50.844;4.412;2023-02-03T16:50:13;14.00;99.90
27795;DHT22;15176;50.844;4.412;2023-02-03T16:52:58;13.80;99.90
27795;DHT22;15176;50.844;4.412;2023-02-03T16:55:24;14.20;99.90
27795;DHT22;15176;50.844;4.412;2023-02-03T16:57:50;14.10;99.90
27795;DHT22;15176;50.844;4.412;2023-02-03T17:00:17;14.10;99.90
27795;DHT22;15176;50.844;4.412;2023-02-03T17:02:43;14.00;99.90
27795;DHT22;15176;50.844;4.412;2023-02-03T17:05:08;14.10;99.90
27795;DHT22;15176;50.844;4.412;2023-02-03T17:07:37;14.30;99.90
27795;DHT22;15176;50.844;4.412;2023-02-03T17:10:03;14.30;99.90
27795;DHT22;15176;50.844;4.412;2023-02-03T17:12:29;14.50;99.90
27795;DHT22;15176;50.844;4.412;2023-02-03T17:14:58;14.20;99.90
27795;DHT22;15176;50.844;4.412;2023-02-03T17:17:24;14.20;99.90
27795;DHT22;15176;50.844;4.412;2023-02-03T17:19:50;14.10;99.90
27795;DHT22;15176;50.844;4.412;2023-02-03T17:22:17;14.10;99.90
27795;DHT22;15176;50.844;4.412;2023-02-03T17:24:42;14.20;99.90
27795;DHT22;15176;50.844;4.412;2023-02-03T17:27:12;14.10;99.90
27795;DHT22;15176;50.844;4.412;2023-02-03T17:29:38;13.90;99.90
27795;DHT22;15176;50.844;4.412;2023-02-03T17:32:04;13.90;99.90
27795;DHT22;15176;50.844;4.412;2023-02-03T17:34:30;13.60;99.90
27795;DHT22;15176;50.844;4.412;2023-02-03T17:36:57;13.20;99.90
27795;DHT22;15176;50.844;4.412;2023-02-03T17:39:22;13.10;99.90
27795;DHT22;15176;50.844;4.412;2023-02-03T17:41:48;13.00;99.90
27795;DHT22;15176;50.844;4.412;2023-02-03T17:44:16;13.10;99.90
27795;DHT22;15176;50.844;4.412;2023-02-03T17:46:41;13.10;99.90
27795;DHT22;15176;50.844;4.412;2023-02-03T17:49:08;13.40;99.90
27795;DHT22;15176;50.844;4.412;2023-02-03T17:51:34;13.30;99.90
27795;DHT22;15176;50.844;4.412;2023-02-03T17:54:00;13.30;99.90
27795;DHT22;15176;50.844;4.412;2023-02-03T17:56:32;13.40;99.90
27795;DHT22;15176;50.844;4.412;2023-02-03T17:59:02;13.70;99.90
27795;DHT22;15176;50.844;4.412;2023-02-03T18:01:28;13.90;99.90
27795;DHT22;15176;50.844;4.412;2023-02-03T18:04:03;13.70;99.90